Time;durP1;ratioP1;P1;durP2;ratioP2;P2;SDS_P1;SDS_P2;PMS_P1;PMS_P2;Temp;Humidity;BMP_temperature;BMP_pressure;BME280_temperature;BME280_humidity;BME280_pressure;Samples;Min_cycle;Max_cycle;Signal;HPM_P1;HPM_P2
2020/12/01 05:47:44;;;;;;;15.83;10.33;;;;;;;;;;6193670;23;20104;-82
2020/12/01 05:50:11;;;;;;;16.38;9.82;;;;;;;;;;6169729;23;20091;-82
2020/12/01 05:52:53;;;;;;;18.33;10.45;;;;;;;;;;6196658;23;20001;-82
2020/12/01 05:55:25;;;;;;;15.80;9.40;;;;;;;;;;6197200;23;19993;-82
2020/12/01 05:57:59;;;;;;;18.30;10.05;;;;;;;;;;6196704;23;19997;-83
2020/12/01 06:00:29;;;;;;;15.15;8.85;;;;;;;;;;6195203;23;20347;-82
2020/12/01 06:03:04;;;;;;;17.65;9.68;;;;;;;;;;6221488;22;20421;-82
2020/12/01 06:05:30;;;;;;;15.93;9.45;;;;;;;;;;6200038;23;20009;-82
2020/12/01 06:08:00;;;;;;;17.35;10.05;;;;;;;;;;6227552;23;20007;-82
2020/12/01 06:10:44;;;;;;;17.90;10.50;;;;;;;;;;6201057;23;19996;-82
2020/12/01 06:13:18;;;;;;;18.52;10.38;;;;;;;;;;6195809;23;20072;-82
2020/12/01 06:16:07;;;;;;;18.25;10.38;;;;;;;;;;6195775;23;20005;-82
2020/12/01 06:18:43;;;;;;;16.90;10.00;;;;;;;;;;6151297;23;20024;-81
2020/12/01 06:21:13;;;;;;;17.10;10.30;;;;;;;;;;6168566;23;20335;-82
2020/12/01 06:23:45;;;;;;;25.38;11.35;;;;;;;;;;6169184;23;20005;-82
2020/12/01 06:26:25;;;;;;;24.02;11.73;;;;;;;;;;6168596;23;20386;-82
2020/12/01 06:29:06;;;;;;;19.58;10.38;;;;;;;;;;6170075;23;20005;-82
2020/12/01 06:31:51;;;;;;;16.50;9.82;;;;;;;;;;6167535;23;20424;-82
2020/12/01 06:34:36;;;;;;;30.75;14.50;;;;;;;;;;6168458;23;20012;-82
2020/12/01 06:37:13;;;;;;;24.58;13.52;;;;;;;;;;6163950;23;20021;-82
2020/12/01 06:42:09;;;;;;;17.00;9.93;;;;;;;;;;5101819;27;20364;-83
2020/12/01 06:44:35;;;;;;;16.73;8.85;;;;;;;;;;5084251;28;20048;-80
2020/12/01 06:47:01;;;;;;;17.60;10.30;;;;;;;;;;5067688;28;20113;-82
2020/12/01 06:49:29;;;;;;;19.75;9.85;;;;;;;;;;5076933;28;20024;-83
2020/12/01 06:51:58;;;;;;;16.13;9.35;;;;;;;;;;5085638;28;20090;-83
2020/12/01 06:54:23;;;;;;;15.55;9.50;;;;;;;;;;5099148;28;20025;-83
2020/12/01 06:57:04;;;;;;;15.23;8.95;;;;;;;;;;5087379;28;20039;-81
2020/12/01 06:59:30;;;;;;;14.95;8.70;;;;;;;;;;5078370;28;20384;-81
2020/12/01 07:02:07;;;;;;;15.98;9.00;;;;;;;;;;5077956;28;20548;-81
2020/12/01 07:04:33;;;;;;;17.33;9.52;;;;;;;;;;5075779;28;20021;-81
2020/12/01 07:07:01;;;;;;;16.58;9.40;;;;;;;;;;5077599;28;20024;-82
2020/12/01 07:09:32;;;;;;;17.25;8.93;;;;;;;;;;5084348;28;20062;-82
2020/12/01 07:12:04;;;;;;;18.90;9.75;;;;;;;;;;5082639;28;20028;-82
2020/12/01 07:14:35;;;;;;;16.10;8.45;;;;;;;;;;5080752;28;20070;-82
2020/12/01 07:17:01;;;;;;;15.70;8.77;;;;;;;;;;5085875;28;20392;-81
2020/12/01 07:19:40;;;;;;;14.68;7.78;;;;;;;;;;5086174;28;20035;-82
2020/12/01 07:24:31;;;;;;;17.83;9.57;;;;;;;;;;5066688;28;20411;-81
2020/12/01 07:27:01;;;;;;;17.17;8.55;;;;;;;;;;5062853;28;20037;-82
2020/12/01 07:31:46;;;;;;;15.60;8.70;;;;;;;;;;5100609;27;20851;-82
2020/12/01 07:34:24;;;;;;;14.45;8.88;;;;;;;;;;5088011;28;20070;-82
2020/12/01 07:39:10;;;;;;;16.00;9.65;;;;;;;;;;5105554;27;20363;-82
2020/12/01 07:41:44;;;;;;;15.88;9.18;;;;;;;;;;5107010;28;20094;-81
2020/12/01 07:44:11;;;;;;;15.00;8.38;;;;;;;;;;5085755;28;20536;-82
2020/12/01 07:49:13;;;;;;;19.17;10.95;;;;;;;;;;5092242;28;20056;-82
2020/12/01 07:51:40;;;;;;;18.40;10.30;;;;;;;;;;5093587;28;20031;-82
2020/12/01 07:54:07;;;;;;;15.48;9.30;;;;;;;;;;5101678;28;20028;-81
2020/12/01 07:56:33;;;;;;;22.80;8.82;;;;;;;;;;5096975;28;20020;-82
2020/12/01 07:59:02;;;;;;;15.00;9.43;;;;;;;;;;5094502;28;20044;-82
2020/12/01 08:01:28;;;;;;;16.25;8.43;;;;;;;;;;5092572;28;20028;-81
2020/12/01 08:04:03;;;;;;;14.82;8.75;;;;;;;;;;5094819;28;20118;-82
2020/12/01 08:06:29;;;;;;;14.23;8.68;;;;;;;;;;5079613;28;20117;-81
2020/12/01 08:08:55;;;;;;;13.05;7.65;;;;;;;;;;5089220;28;20415;-82
2020/12/01 08:11:22;;;;;;;16.38;8.25;;;;;;;;;;5100120;28;20034;-82
2020/12/01 08:13:52;;;;;;;17.73;9.60;;;;;;;;;;5090399;28;20024;-82
2020/12/01 08:16:22;;;;;;;14.00;8.70;;;;;;;;;;5098339;28;20032;-82
2020/12/01 08:18:49;;;;;;;16.38;9.85;;;;;;;;;;5093271;28;20111;-79
2020/12/01 08:21:17;;;;;;;18.35;9.25;;;;;;;;;;5092998;28;20017;-82
2020/12/01 08:23:45;;;;;;;15.00;8.32;;;;;;;;;;5093167;28;20012;-82
2020/12/01 08:26:13;;;;;;;17.10;9.20;;;;;;;;;;5094399;28;20035;-82
2020/12/01 08:28:44;;;;;;;15.55;9.10;;;;;;;;;;5097044;28;20084;-82
2020/12/01 08:31:10;;;;;;;17.75;9.13;;;;;;;;;;5097094;28;20035;-82
2020/12/01 08:33:41;;;;;;;13.95;7.60;;;;;;;;;;5102971;28;20407;-83
2020/12/01 08:36:15;;;;;;;14.80;8.25;;;;;;;;;;5103974;28;20382;-82
2020/12/01 08:39:01;;;;;;;15.23;8.05;;;;;;;;;;5101315;28;20103;-82
2020/12/01 08:41:36;;;;;;;18.23;10.40;;;;;;;;;;5104004;28;20118;-82
2020/12/01 08:44:14;;;;;;;15.48;8.80;;;;;;;;;;5109173;28;20436;-82
2020/12/01 08:46:45;;;;;;;18.00;8.93;;;;;;;;;;5101643;28;20134;-83
2020/12/01 08:49:23;;;;;;;;;;;;;;;;;;5094378;28;20052;-82
2020/12/01 08:51:52;;;;;;;14.02;8.40;;;;;;;;;;5094433;28;19903;-82
2020/12/01 08:54:21;;;;;;;14.68;8.20;;;;;;;;;;5088544;28;20039;-82
2020/12/01 08:56:47;;;;;;;15.20;8.30;;;;;;;;;;5091718;28;20065;-82
2020/12/01 08:59:17;;;;;;;15.15;8.48;;;;;;;;;;5096236;28;20032;-82
2020/12/01 09:01:43;;;;;;;18.38;9.55;;;;;;;;;;5090930;28;20024;-82
2020/12/01 09:04:23;;;;;;;18.02;9.27;;;;;;;;;;5097676;28;20043;-82
2020/12/01 09:06:51;;;;;;;14.02;7.55;;;;;;;;;;5080059;28;20561;-82
2020/12/01 09:09:22;;;;;;;15.55;7.68;;;;;;;;;;5083852;28;20030;-82
2020/12/01 09:17:41;;;;;;;15.40;8.55;;;;;;;;;;5086945;28;20039;-82
2020/12/01 09:22:43;;;;;;;15.55;8.35;;;;;;;;;;5080941;28;20028;-82
2020/12/01 09:25:17;;;;;;;14.63;7.80;;;;;;;;;;5085405;28;20063;-83
2020/12/01 09:27:44;;;;;;;16.10;7.93;;;;;;;;;;5076209;28;20028;-82
2020/12/01 09:30:29;;;;;;;15.52;8.93;;;;;;;;;;5075477;28;20041;-82
2020/12/01 09:32:55;;;;;;;17.17;9.73;;;;;;;;;;5078971;28;20024;-83
2020/12/01 09:35:21;;;;;;;15.02;8.68;;;;;;;;;;5074011;28;20028;-83
2020/12/01 09:37:47;;;;;;;13.73;7.57;;;;;;;;;;5076910;28;20043;-82
2020/12/01 09:40:13;;;;;;;15.30;8.70;;;;;;;;;;5087918;28;20028;-82
2020/12/01 09:42:40;;;;;;;14.88;8.05;;;;;;;;;;5081320;28;20097;-82
2020/12/01 09:50:17;;;;;;;12.80;7.55;;;;;;;;;;5083454;28;20039;-83
2020/12/01 09:58:36;;;;;;;13.95;7.72;;;;;;;;;;5083624;28;20028;-82
2020/12/01 10:09:15;;;;;;;16.52;8.32;;;;;;;;;;5080800;28;20074;-82
2020/12/01 10:25:52;;;;;;;18.20;9.70;;;;;;;;;;5066781;28;20044;-81
2020/12/01 10:36:05;;;;;;;15.25;8.70;;;;;;;;;;5069794;28;20039;-81
2020/12/01 10:38:31;;;;;;;17.48;8.98;;;;;;;;;;5070556;28;20043;-82
2020/12/01 10:40:57;;;;;;;16.25;8.82;;;;;;;;;;5071913;28;20468;-81
2020/12/01 10:43:23;;;;;;;15.38;8.70;;;;;;;;;;5061455;28;20100;-80
2020/12/01 10:45:49;;;;;;;17.40;9.70;;;;;;;;;;5064025;28;20451;-81
2020/12/01 10:48:16;;;;;;;17.90;9.63;;;;;;;;;;5070210;28;20039;-81
2020/12/01 10:50:42;;;;;;;17.48;10.07;;;;;;;;;;5063737;28;20028;-81
2020/12/01 10:53:08;;;;;;;18.35;9.75;;;;;;;;;;5066832;28;20028;-81
2020/12/01 10:55:33;;;;;;;14.98;8.98;;;;;;;;;;5063751;28;20421;-81
2020/12/01 10:57:59;;;;;;;16.20;9.98;;;;;;;;;;5065234;28;20086;-81
2020/12/01 11:00:27;;;;;;;14.35;9.23;;;;;;;;;;5070680;28;20059;-80
2020/12/01 11:02:53;;;;;;;17.90;10.63;;;;;;;;;;5070440;28;20021;-81
2020/12/01 11:05:29;;;;;;;19.63;10.68;;;;;;;;;;5067634;28;20033;-81
2020/12/01 11:07:55;;;;;;;14.63;8.50;;;;;;;;;;5066937;28;20036;-80
2020/12/01 11:10:21;;;;;;;15.25;8.57;;;;;;;;;;5064740;28;20043;-81
2020/12/01 11:12:47;;;;;;;16.98;9.00;;;;;;;;;;5062024;28;20036;-82
2020/12/01 11:15:13;;;;;;;16.27;9.07;;;;;;;;;;5072605;28;20029;-82
2020/12/01 11:17:39;;;;;;;15.80;9.02;;;;;;;;;;5068604;28;20025;-81
2020/12/01 11:20:06;;;;;;;18.88;10.63;;;;;;;;;;5070924;28;20025;-81
2020/12/01 11:22:32;;;;;;;16.13;10.30;;;;;;;;;;5066310;28;20114;-81
2020/12/01 11:24:58;;;;;;;18.38;10.27;;;;;;;;;;5069165;28;20062;-81
2020/12/01 11:27:24;;;;;;;25.92;12.07;;;;;;;;;;5072961;28;20032;-81
2020/12/01 11:29:50;;;;;;;19.80;10.75;;;;;;;;;;5070524;28;20078;-81
2020/12/01 11:32:16;;;;;;;19.08;11.38;;;;;;;;;;5070203;28;20113;-81
2020/12/01 11:34:42;;;;;;;15.52;8.20;;;;;;;;;;5069795;28;20036;-81
2020/12/01 11:37:08;;;;;;;18.42;9.55;;;;;;;;;;5069990;28;20064;-81
2020/12/01 11:39:34;;;;;;;13.98;8.60;;;;;;;;;;5075305;28;20455;-82
2020/12/01 11:42:01;;;;;;;15.45;8.55;;;;;;;;;;5081451;28;20410;-82
2020/12/01 11:44:27;;;;;;;16.52;9.35;;;;;;;;;;5075656;28;20025;-82
2020/12/01 11:49:10;;;;;;;20.27;9.93;;;;;;;;;;5117567;27;20358;-83
2020/12/01 11:51:37;;;;;;;12.65;7.18;;;;;;;;;;5105946;28;20398;-84
2020/12/01 11:54:04;;;;;;;14.93;8.82;;;;;;;;;;5099933;28;20244;-83
2020/12/01 11:58:48;;;;;;;15.63;8.27;;;;;;;;;;5119276;27;20313;-83
2020/12/01 12:01:15;;;;;;;18.52;10.77;;;;;;;;;;5110851;28;20107;-83
2020/12/01 12:03:41;;;;;;;19.10;10.00;;;;;;;;;;5120310;28;20024;-83
2020/12/01 12:06:07;;;;;;;15.90;9.55;;;;;;;;;;5104200;28;20114;-81
2020/12/01 12:08:33;;;;;;;16.63;9.82;;;;;;;;;;5106761;28;20063;-80
2020/12/01 12:10:59;;;;;;;17.48;9.98;;;;;;;;;;5097449;28;20465;-79
2020/12/01 12:13:25;;;;;;;16.98;10.23;;;;;;;;;;5100301;28;20460;-80
2020/12/01 12:15:51;;;;;;;17.00;10.15;;;;;;;;;;5104903;28;20035;-80
2020/12/01 12:18:17;;;;;;;17.15;9.88;;;;;;;;;;5109463;28;20100;-80
2020/12/01 12:20:43;;;;;;;16.55;9.18;;;;;;;;;;5106532;28;20120;-80
2020/12/01 12:25:28;;;;;;;17.85;10.52;;;;;;;;;;5104957;27;20358;-80
2020/12/01 12:27:54;;;;;;;19.13;11.65;;;;;;;;;;5097725;28;20082;-80
2020/12/01 12:30:20;;;;;;;17.30;10.52;;;;;;;;;;5103531;28;20032;-79
2020/12/01 12:32:46;;;;;;;16.25;10.13;;;;;;;;;;5101210;28;20052;-79
2020/12/01 12:35:12;;;;;;;16.33;9.80;;;;;;;;;;5090193;28;20052;-79
2020/12/01 12:37:38;;;;;;;18.13;9.73;;;;;;;;;;5082009;28;20025;-80
2020/12/01 12:40:05;;;;;;;20.15;11.45;;;;;;;;;;5075316;28;20388;-80
2020/12/01 12:42:30;;;;;;;20.17;11.38;;;;;;;;;;5087751;28;20032;-79
2020/12/01 12:44:56;;;;;;;15.82;9.63;;;;;;;;;;5082661;28;20035;-79
2020/12/01 12:47:23;;;;;;;17.75;9.73;;;;;;;;;;5078980;28;20092;-80
2020/12/01 12:49:49;;;;;;;20.40;9.60;;;;;;;;;;5080777;28;20016;-79
2020/12/01 12:52:15;;;;;;;17.70;9.93;;;;;;;;;;5087157;28;20016;-79
2020/12/01 12:54:41;;;;;;;18.42;10.80;;;;;;;;;;5083253;28;20817;-80
2020/12/01 12:57:07;;;;;;;16.77;9.57;;;;;;;;;;5086702;28;20445;-79
2020/12/01 12:59:33;;;;;;;15.23;9.70;;;;;;;;;;5087552;28;20027;-79
2020/12/01 13:01:59;;;;;;;16.80;9.25;;;;;;;;;;5086122;28;20115;-79
2020/12/01 13:04:25;;;;;;;17.27;9.45;;;;;;;;;;5082505;28;20036;-79
2020/12/01 13:06:51;;;;;;;14.25;9.07;;;;;;;;;;5085178;28;20141;-79
2020/12/01 13:09:17;;;;;;;14.40;8.70;;;;;;;;;;5078916;28;20493;-79
2020/12/01 13:11:43;;;;;;;14.98;9.00;;;;;;;;;;5084491;28;20017;-79
2020/12/01 13:14:09;;;;;;;14.25;8.27;;;;;;;;;;5083071;28;20396;-79
2020/12/01 13:18:53;;;;;;;16.30;8.70;;;;;;;;;;5098127;27;20337;-80
2020/12/01 13:21:19;;;;;;;16.25;8.25;;;;;;;;;;5100452;28;20074;-80
2020/12/01 13:23:45;;;;;;;11.65;6.88;;;;;;;;;;5082928;28;20476;-80
2020/12/01 13:26:12;;;;;;;15.45;7.88;;;;;;;;;;5085663;28;20033;-80
2020/12/01 13:28:38;;;;;;;12.93;7.32;;;;;;;;;;5077592;28;20031;-80
2020/12/01 13:31:04;;;;;;;15.65;9.43;;;;;;;;;;5087247;28;20092;-80
2020/12/01 13:33:30;;;;;;;14.82;8.27;;;;;;;;;;5076662;28;20052;-80
2020/12/01 13:35:56;;;;;;;13.20;8.38;;;;;;;;;;5079232;28;20039;-80
2020/12/01 13:38:22;;;;;;;17.98;8.77;;;;;;;;;;5081603;28;20025;-80
2020/12/01 13:40:48;;;;;;;13.88;7.63;;;;;;;;;;5082535;28;20103;-80
2020/12/01 13:43:13;;;;;;;13.15;7.47;;;;;;;;;;5089547;28;20422;-80
2020/12/01 13:45:40;;;;;;;13.23;7.45;;;;;;;;;;5081226;28;20150;-80
2020/12/01 13:48:06;;;;;;;12.02;6.95;;;;;;;;;;5084494;28;20029;-80
2020/12/01 13:50:32;;;;;;;13.55;7.22;;;;;;;;;;5074882;28;20024;-79
2020/12/01 13:52:58;;;;;;;12.27;6.53;;;;;;;;;;5080718;28;20020;-80
2020/12/01 13:55:25;;;;;;;13.07;6.80;;;;;;;;;;5085639;28;20099;-80
2020/12/01 13:57:51;;;;;;;12.77;6.57;;;;;;;;;;5079803;28;20049;-80
2020/12/01 14:00:43;;;;;;;11.68;6.45;;;;;;;;;;5086661;28;20796;-80
2020/12/01 14:03:09;;;;;;;8.27;5.10;;;;;;;;;;5086791;28;20036;-80
2020/12/01 14:05:35;;;;;;;10.75;5.55;;;;;;;;;;5079221;28;20070;-80
2020/12/01 14:08:02;;;;;;;10.15;6.07;;;;;;;;;;5095398;28;20025;-80
2020/12/01 14:10:28;;;;;;;10.80;5.82;;;;;;;;;;5078937;28;20024;-81
2020/12/01 14:12:54;;;;;;;11.77;5.13;;;;;;;;;;5075458;28;20089;-80
2020/12/01 14:15:20;;;;;;;9.82;5.53;;;;;;;;;;5084350;28;20037;-80
2020/12/01 14:17:47;;;;;;;11.43;5.72;;;;;;;;;;5076814;28;20120;-79
2020/12/01 14:20:14;;;;;;;9.13;5.38;;;;;;;;;;5081511;28;20051;-80
2020/12/01 14:22:40;;;;;;;10.32;5.45;;;;;;;;;;5076883;28;20767;-80
2020/12/01 14:25:07;;;;;;;11.35;5.95;;;;;;;;;;5078465;28;20073;-80
2020/12/01 14:27:33;;;;;;;8.20;4.80;;;;;;;;;;5081720;28;20388;-80
2020/12/01 14:29:59;;;;;;;12.45;6.32;;;;;;;;;;5070118;28;20103;-80
2020/12/01 14:32:24;;;;;;;12.48;6.43;;;;;;;;;;5067882;28;20075;-80
2020/12/01 14:34:50;;;;;;;9.75;5.38;;;;;;;;;;5073840;28;20051;-80
2020/12/01 14:37:17;;;;;;;8.85;5.40;;;;;;;;;;5066468;28;20482;-80
2020/12/01 14:39:44;;;;;;;8.55;5.35;;;;;;;;;;5072241;28;20091;-80
2020/12/01 14:42:11;;;;;;;9.98;6.10;;;;;;;;;;5067891;28;20708;-80
2020/12/01 14:44:37;;;;;;;13.63;5.38;;;;;;;;;;5062908;28;20044;-80
2020/12/01 14:47:26;;;;;;;11.48;5.90;;;;;;;;;;5070785;28;20472;-80
2020/12/01 14:50:02;;;;;;;9.75;5.47;;;;;;;;;;5083377;28;20028;-80
2020/12/01 14:52:54;;;;;;;13.63;6.13;;;;;;;;;;5080357;28;20391;-80
2020/12/01 14:55:32;;;;;;;9.77;5.80;;;;;;;;;;5049427;28;20119;-80
2020/12/01 14:58:07;;;;;;;9.63;5.63;;;;;;;;;;5076845;28;20032;-80
2020/12/01 15:00:42;;;;;;;11.43;5.38;;;;;;;;;;5081788;28;20377;-80
2020/12/01 15:03:27;;;;;;;9.55;4.95;;;;;;;;;;5070318;28;20484;-80
2020/12/01 15:06:11;;;;;;;10.70;5.43;;;;;;;;;;5065404;28;20078;-80
2020/12/01 15:08:56;;;;;;;17.67;8.82;;;;;;;;;;5063233;28;20032;-80
2020/12/01 15:11:34;;;;;;;20.58;10.27;;;;;;;;;;5059010;28;20085;-80
2020/12/01 15:14:00;;;;;;;19.05;9.68;;;;;;;;;;5065655;28;20097;-79
2020/12/01 15:16:29;;;;;;;18.92;10.10;;;;;;;;;;5068401;28;20066;-79
2020/12/01 15:18:55;;;;;;;16.60;9.80;;;;;;;;;;5065172;28;20071;-79
2020/12/01 15:21:25;;;;;;;16.73;9.00;;;;;;;;;;5074381;28;20020;-79
2020/12/01 15:24:00;;;;;;;14.80;9.98;;;;;;;;;;5064719;28;20021;-79
2020/12/01 15:26:26;;;;;;;11.38;6.95;;;;;;;;;;5062514;28;20021;-79
2020/12/01 15:28:52;;;;;;;11.50;5.45;;;;;;;;;;5063272;28;20032;-80
2020/12/01 15:31:20;;;;;;;12.73;8.20;;;;;;;;;;5067220;28;20035;-80
2020/12/01 15:33:47;;;;;;;12.60;7.03;;;;;;;;;;5069897;28;20113;-80
2020/12/01 15:36:16;;;;;;;11.07;5.75;;;;;;;;;;5070702;28;20059;-80
2020/12/01 15:38:42;;;;;;;10.27;5.97;;;;;;;;;;5070955;28;20140;-80
2020/12/01 15:41:10;;;;;;;17.33;7.03;;;;;;;;;;5066615;28;20020;-80
2020/12/01 15:43:40;;;;;;;9.85;6.82;;;;;;;;;;5064121;28;20111;-80
2020/12/01 15:46:14;;;;;;;10.43;6.27;;;;;;;;;;5062638;28;20024;-80
2020/12/01 15:48:40;;;;;;;9.45;5.18;;;;;;;;;;5085235;28;20453;-80
2020/12/01 15:51:15;;;;;;;11.40;5.68;;;;;;;;;;5065998;28;20072;-80
2020/12/01 15:53:50;;;;;;;13.90;6.22;;;;;;;;;;5068133;28;20024;-80
2020/12/01 15:56:19;;;;;;;12.57;7.07;;;;;;;;;;5071259;28;20047;-80
2020/12/01 15:59:03;;;;;;;13.38;7.40;;;;;;;;;;5070452;28;20029;-80
2020/12/01 16:01:29;;;;;;;11.00;5.68;;;;;;;;;;5066108;28;20021;-80
2020/12/01 16:04:14;;;;;;;9.02;5.00;;;;;;;;;;5069017;28;20074;-80
2020/12/01 16:06:43;;;;;;;8.00;4.38;;;;;;;;;;5068194;28;20020;-80
2020/12/01 16:09:15;;;;;;;8.43;4.57;;;;;;;;;;5068973;28;20032;-81
2020/12/01 16:11:50;;;;;;;10.32;5.53;;;;;;;;;;5068312;28;20027;-80
2020/12/01 16:14:36;;;;;;;10.68;4.47;;;;;;;;;;5072004;28;20024;-81
2020/12/01 16:19:31;;;;;;;10.48;5.10;;;;;;;;;;5090301;28;20768;-80
2020/12/01 16:21:59;;;;;;;10.50;4.90;;;;;;;;;;5061824;28;20379;-80
2020/12/01 16:24:27;;;;;;;9.23;5.30;;;;;;;;;;5055309;28;20029;-80
2020/12/01 16:27:19;;;;;;;9.57;4.85;;;;;;;;;;5057061;28;20104;-80
2020/12/01 16:29:59;;;;;;;10.93;5.28;;;;;;;;;;5057811;28;20520;-79
2020/12/01 16:32:29;;;;;;;11.18;4.78;;;;;;;;;;5061646;28;20021;-80
2020/12/01 16:34:59;;;;;;;8.40;4.75;;;;;;;;;;5058712;28;20071;-80
2020/12/01 16:37:40;;;;;;;9.85;4.95;;;;;;;;;;5065316;28;20028;-79
2020/12/01 16:40:06;;;;;;;12.52;5.20;;;;;;;;;;5068458;28;20024;-79
2020/12/01 16:42:50;;;;;;;8.73;4.63;;;;;;;;;;5069064;28;20017;-79
2020/12/01 16:45:21;;;;;;;10.05;5.15;;;;;;;;;;5080420;28;20024;-79
2020/12/01 16:47:52;;;;;;;8.88;5.07;;;;;;;;;;5072386;28;20025;-79
2020/12/01 16:50:24;;;;;;;12.77;5.78;;;;;;;;;;5074728;28;20428;-81
2020/12/01 16:53:09;;;;;;;13.00;6.60;;;;;;;;;;5073812;28;20028;-80
2020/12/01 16:55:45;;;;;;;12.52;6.35;;;;;;;;;;5056083;28;20030;-79
2020/12/01 16:58:11;;;;;;;12.73;7.00;;;;;;;;;;5061360;28;20494;-79
2020/12/01 17:00:48;;;;;;;11.68;6.60;;;;;;;;;;5055436;28;20104;-79
2020/12/01 17:03:33;;;;;;;10.95;5.97;;;;;;;;;;5067612;28;20431;-79
2020/12/01 17:06:10;;;;;;;12.05;5.40;;;;;;;;;;5065329;28;20022;-79
2020/12/01 17:08:35;;;;;;;10.25;5.00;;;;;;;;;;5067252;28;20086;-79
2020/12/01 17:11:03;;;;;;;12.35;5.70;;;;;;;;;;5065480;28;20033;-79
2020/12/01 17:13:59;;;;;;;11.93;6.55;;;;;;;;;;5055345;28;20046;-80
2020/12/01 17:16:48;;;;;;;25.80;10.65;;;;;;;;;;5059490;28;20028;-80
2020/12/01 17:19:14;;;;;;;19.45;9.10;;;;;;;;;;5044261;28;20103;-80
2020/12/01 17:21:41;;;;;;;19.52;9.60;;;;;;;;;;5051309;28;20087;-79
2020/12/01 17:24:13;;;;;;;16.88;10.27;;;;;;;;;;5066779;28;20035;-79
2020/12/01 17:26:42;;;;;;;13.68;7.38;;;;;;;;;;5062941;28;20025;-79
2020/12/01 17:29:19;;;;;;;14.93;6.00;;;;;;;;;;5061829;28;20083;-80
2020/12/01 17:31:53;;;;;;;15.23;9.68;;;;;;;;;;5051236;28;20025;-83
2020/12/01 17:34:55;;;;;;;15.35;9.00;;;;;;;;;;5064875;28;20410;-83
2020/12/01 17:39:55;;;;;;;14.73;7.38;;;;;;;;;;5112599;27;20377;-82
2020/12/01 17:42:28;;;;;;;13.23;6.95;;;;;;;;;;5098174;28;20689;-82
2020/12/01 17:45:00;;;;;;;11.60;6.05;;;;;;;;;;5088985;28;20107;-83
2020/12/01 17:47:32;;;;;;;12.02;5.15;;;;;;;;;;5086408;28;20070;-83
2020/12/01 17:49:58;;;;;;;;;;;;;;;;;;5088204;28;20029;-83
2020/12/01 17:52:28;;;;;;;13.02;5.35;;;;;;;;;;5089587;28;19977;-83
2020/12/01 17:54:54;;;;;;;15.05;5.40;;;;;;;;;;5095867;28;20123;-82
2020/12/01 17:57:20;;;;;;;11.48;5.20;;;;;;;;;;5092752;28;20111;-83
2020/12/01 18:02:06;;;;;;;10.30;5.00;;;;;;;;;;5096332;27;20348;-82
2020/12/01 18:04:32;;;;;;;11.45;5.78;;;;;;;;;;5097452;28;20024;-82
2020/12/01 18:06:59;;;;;;;13.23;6.00;;;;;;;;;;5091031;28;20039;-83
2020/12/01 18:09:34;;;;;;;12.82;5.78;;;;;;;;;;5092383;28;20034;-82
2020/12/01 18:12:04;;;;;;;12.13;4.75;;;;;;;;;;5093269;28;20032;-82
2020/12/01 18:14:45;;;;;;;9.82;4.38;;;;;;;;;;5084635;28;20028;-83
2020/12/01 18:17:24;;;;;;;12.18;5.28;;;;;;;;;;5086550;28;20032;-82
2020/12/01 18:20:08;;;;;;;8.98;4.85;;;;;;;;;;5088180;28;20107;-82
2020/12/01 18:22:40;;;;;;;14.60;5.35;;;;;;;;;;5090037;28;20111;-82
2020/12/01 18:25:16;;;;;;;10.18;5.07;;;;;;;;;;5088976;28;20499;-82
2020/12/01 18:27:43;;;;;;;14.52;5.95;;;;;;;;;;5088595;28;20016;-82
2020/12/01 18:30:14;;;;;;;13.23;5.55;;;;;;;;;;5094250;28;20027;-81
2020/12/01 18:32:59;;;;;;;10.57;5.87;;;;;;;;;;5092912;28;20028;-81
2020/12/01 18:35:30;;;;;;;12.50;5.65;;;;;;;;;;5086032;28;20255;-81
2020/12/01 18:37:56;;;;;;;17.02;4.57;;;;;;;;;;5088861;28;20435;-82
2020/12/01 18:40:24;;;;;;;10.65;4.47;;;;;;;;;;5088126;28;20024;-82
2020/12/01 18:43:00;;;;;;;12.93;6.20;;;;;;;;;;5087278;28;20506;-81
2020/12/01 18:45:33;;;;;;;12.05;5.65;;;;;;;;;;5084432;28;20016;-82
2020/12/01 18:48:00;;;;;;;12.93;6.43;;;;;;;;;;5085868;28;20484;-81
2020/12/01 18:50:26;;;;;;;13.25;6.47;;;;;;;;;;5083675;28;20025;-81
2020/12/01 18:52:52;;;;;;;11.00;4.80;;;;;;;;;;5086779;28;20082;-81
2020/12/01 18:55:18;;;;;;;11.27;5.78;;;;;;;;;;5085740;28;20028;-81
2020/12/01 18:57:44;;;;;;;13.57;5.40;;;;;;;;;;5088115;28;20427;-81
2020/12/01 19:00:11;;;;;;;13.45;6.43;;;;;;;;;;5086732;28;20029;-81
2020/12/01 19:02:37;;;;;;;11.18;6.18;;;;;;;;;;5087883;28;20815;-81
2020/12/01 19:05:03;;;;;;;9.80;4.85;;;;;;;;;;5085786;28;20025;-81
2020/12/01 19:07:29;;;;;;;12.57;5.65;;;;;;;;;;5088978;28;20472;-81
2020/12/01 19:09:55;;;;;;;13.85;5.18;;;;;;;;;;5086857;28;20032;-81
2020/12/01 19:12:21;;;;;;;16.13;5.65;;;;;;;;;;5081282;28;20033;-81
2020/12/01 19:14:47;;;;;;;9.25;4.50;;;;;;;;;;5071045;28;20036;-82
2020/12/01 19:17:14;;;;;;;16.98;7.90;;;;;;;;;;5072229;28;20029;-81
2020/12/01 19:19:47;;;;;;;17.13;7.10;;;;;;;;;;5070060;28;20083;-82
2020/12/01 19:22:42;;;;;;;11.25;5.78;;;;;;;;;;5073058;28;20035;-82
2020/12/01 19:25:32;;;;;;;12.57;5.20;;;;;;;;;;5074104;28;20480;-82
2020/12/01 19:28:00;;;;;;;10.80;5.18;;;;;;;;;;5069021;28;20397;-82
2020/12/01 19:30:39;;;;;;;10.73;5.45;;;;;;;;;;5073687;28;20040;-81
2020/12/01 19:33:25;;;;;;;15.90;7.30;;;;;;;;;;5067942;28;20036;-81
2020/12/01 19:35:51;;;;;;;12.85;5.30;;;;;;;;;;5072729;28;20119;-82
2020/12/01 19:38:17;;;;;;;12.90;5.43;;;;;;;;;;5074091;28;20113;-81
2020/12/01 19:40:44;;;;;;;10.05;4.55;;;;;;;;;;5071377;28;20115;-83
2020/12/01 19:43:11;;;;;;;13.63;5.18;;;;;;;;;;5070744;28;20037;-83
2020/12/01 19:45:37;;;;;;;13.75;6.53;;;;;;;;;;5071293;28;20032;-83
2020/12/01 19:48:03;;;;;;;12.77;6.00;;;;;;;;;;5069575;28;20028;-83
2020/12/01 19:50:29;;;;;;;12.10;5.50;;;;;;;;;;5066841;28;20032;-83
2020/12/01 19:52:55;;;;;;;12.07;6.15;;;;;;;;;;5071822;28;20067;-83
2020/12/01 19:55:21;;;;;;;11.32;5.65;;;;;;;;;;5070367;28;20033;-83
2020/12/01 19:57:48;;;;;;;11.73;4.80;;;;;;;;;;5070360;28;20074;-83
2020/12/01 20:00:15;;;;;;;11.73;5.10;;;;;;;;;;5069800;28;20033;-83
2020/12/01 20:02:41;;;;;;;14.48;6.05;;;;;;;;;;5067928;28;20078;-83
2020/12/01 20:05:08;;;;;;;12.70;5.80;;;;;;;;;;5070615;28;20603;-83
2020/12/01 20:07:34;;;;;;;13.40;5.85;;;;;;;;;;5069315;28;20556;-84
2020/12/01 20:10:00;;;;;;;11.93;5.10;;;;;;;;;;5070385;28;20135;-83
2020/12/01 20:14:44;;;;;;;13.10;5.53;;;;;;;;;;5104632;27;20344;-83
2020/12/01 20:17:12;;;;;;;11.23;5.15;;;;;;;;;;5087267;28;20557;-83
2020/12/01 20:19:39;;;;;;;11.35;4.97;;;;;;;;;;5089475;28;20552;-83
2020/12/01 20:22:05;;;;;;;10.98;5.25;;;;;;;;;;5104344;28;20028;-83
2020/12/01 20:24:31;;;;;;;10.50;4.93;;;;;;;;;;5095536;28;20017;-83
2020/12/01 20:31:35;;;;;;;16.15;6.82;;;;;;;;;;5059392;28;20376;-82
2020/12/01 20:34:01;;;;;;;13.07;6.90;;;;;;;;;;5045646;28;20036;-82
2020/12/01 20:36:43;;;;;;;12.65;5.95;;;;;;;;;;5034327;28;20029;-82
2020/12/01 20:41:41;;;;;;;8.80;4.35;;;;;;;;;;5085286;27;20495;-82
2020/12/01 20:44:07;;;;;;;9.48;4.47;;;;;;;;;;5061394;28;20110;-82
2020/12/01 20:46:33;;;;;;;14.30;5.88;;;;;;;;;;5067972;28;20025;-82
2020/12/01 20:48:59;;;;;;;13.82;6.15;;;;;;;;;;5066208;28;20021;-81
2020/12/01 20:51:25;;;;;;;12.73;6.18;;;;;;;;;;5069360;28;20027;-82
2020/12/01 20:53:50;;;;;;;17.38;6.93;;;;;;;;;;5063755;28;20048;-82
2020/12/01 20:56:16;;;;;;;19.30;8.48;;;;;;;;;;5070232;28;20032;-82
2020/12/01 20:58:42;;;;;;;16.73;7.05;;;;;;;;;;5073986;28;20027;-82
2020/12/01 21:01:09;;;;;;;14.77;7.05;;;;;;;;;;5077648;28;20021;-82
2020/12/01 21:03:35;;;;;;;15.15;6.28;;;;;;;;;;5070895;28;20404;-82
2020/12/01 21:06:01;;;;;;;17.70;7.55;;;;;;;;;;5067154;28;20059;-82
2020/12/01 21:08:33;;;;;;;15.30;6.13;;;;;;;;;;5063341;28;20016;-82
2020/12/01 21:11:02;;;;;;;15.75;7.25;;;;;;;;;;5063458;28;20040;-82
2020/12/01 21:13:30;;;;;;;12.82;6.63;;;;;;;;;;5062007;28;20489;-82
2020/12/01 21:15:56;;;;;;;16.75;7.78;;;;;;;;;;5060684;28;20061;-82
2020/12/01 21:18:24;;;;;;;13.23;5.10;;;;;;;;;;5063932;28;20032;-82
2020/12/01 21:20:58;;;;;;;19.80;7.65;;;;;;;;;;5071761;28;20768;-82
2020/12/01 21:23:26;;;;;;;25.15;7.88;;;;;;;;;;5075723;28;20017;-82
2020/12/01 21:25:52;;;;;;;14.45;6.72;;;;;;;;;;5067756;28;20017;-82
2020/12/01 21:28:20;;;;;;;12.70;5.85;;;;;;;;;;5066263;28;20021;-82
2020/12/01 21:30:57;;;;;;;10.30;5.00;;;;;;;;;;5068434;28;20096;-82
2020/12/01 21:33:27;;;;;;;16.15;6.30;;;;;;;;;;5071326;28;20020;-85
2020/12/01 21:36:00;;;;;;;19.70;7.32;;;;;;;;;;5075651;28;20024;-85
2020/12/01 21:38:28;;;;;;;14.65;6.72;;;;;;;;;;5064568;28;20366;-85
2020/12/01 21:41:06;;;;;;;19.73;6.70;;;;;;;;;;5062683;28;20036;-85
2020/12/01 21:43:32;;;;;;;19.35;6.78;;;;;;;;;;5062027;28;20440;-83
2020/12/01 21:46:00;;;;;;;18.88;7.38;;;;;;;;;;5066043;28;20028;-82
2020/12/01 21:48:26;;;;;;;13.48;5.78;;;;;;;;;;5081715;28;20095;-82
